createdAt,value
2023-05-22T00:03:55.071Z,15.50
2023-05-22T00:08:57.261Z,15.50
2023-05-22T00:14:00.736Z,14.90
2023-05-22T00:19:03.856Z,14.70
2023-05-22T00:24:06.248Z,14.40
2023-05-22T00:29:09.828Z,14.10
2023-05-22T00:34:11.962Z,13.80
2023-05-22T00:39:14.169Z,13.50
2023-05-22T00:44:17.770Z,13.40
2023-05-22T00:49:19.583Z,13.20
2023-05-22T00:54:22.110Z,13.10
2023-05-22T00:59:26.040Z,13.20
2023-05-22T01:04:28.077Z,13.10
2023-05-22T01:09:30.725Z,12.90
2023-05-22T01:14:41.805Z,12.70
2023-05-22T01:20:07.098Z,12.90
2023-05-22T01:25:33.309Z,12.80
2023-05-22T01:31:00.138Z,13.10
2023-05-22T01:36:04.128Z,13.00
2023-05-22T01:41:06.877Z,13.20
2023-05-22T01:46:10.400Z,13.20
2023-05-22T01:51:19.448Z,13.00
2023-05-22T01:56:31.009Z,12.70
2023-05-22T02:01:38.006Z,12.50
2023-05-22T02:06:40.936Z,12.30
2023-05-22T02:11:44.350Z,12.30
2023-05-22T02:16:48.162Z,12.20
2023-05-22T02:21:50.005Z,12.40
2023-05-22T02:26:51.958Z,12.20
2023-05-22T02:31:56.665Z,12.50
2023-05-22T02:36:58.338Z,12.70
2023-05-22T02:42:00.859Z,12.50
2023-05-22T02:47:04.902Z,12.50
2023-05-22T02:52:06.997Z,12.50
2023-05-22T02:57:09.255Z,12.50
2023-05-22T03:02:14.078Z,12.20
2023-05-22T03:07:16.232Z,11.90
2023-05-22T03:12:18.317Z,12.00
2023-05-22T03:17:21.564Z,11.90
2023-05-22T03:22:23.848Z,11.80
2023-05-22T03:27:26.028Z,11.70
2023-05-22T03:32:29.331Z,11.70
2023-05-22T03:37:31.524Z,11.70
2023-05-22T03:42:33.796Z,11.50
2023-05-22T03:47:37.156Z,11.50
2023-05-22T03:52:38.874Z,11.70
2023-05-22T03:57:40.880Z,11.90
2023-05-22T04:02:45.533Z,11.70
2023-05-22T04:07:47.496Z,11.60
2023-05-22T04:12:49.938Z,11.60
2023-05-22T04:17:54.770Z,11.60
2023-05-22T04:22:57.695Z,12.00
2023-05-22T04:28:03.236Z,12.00
2023-05-22T04:33:06.917Z,12.00
2023-05-22T04:38:09.259Z,12.10
2023-05-22T04:43:11.753Z,12.10
2023-05-22T04:48:15.551Z,12.30
2023-05-22T04:53:17.686Z,12.50
2023-05-22T04:58:19.491Z,12.70
2023-05-22T05:03:23.824Z,13.00
2023-05-22T05:08:25.561Z,13.30
2023-05-22T05:13:27.862Z,13.70
2023-05-22T05:18:31.565Z,14.10
2023-05-22T05:23:33.961Z,14.40
2023-05-22T05:28:35.714Z,14.70
2023-05-22T05:33:38.894Z,15.20
2023-05-22T05:38:41.145Z,15.40
2023-05-22T05:43:44.400Z,15.70
2023-05-22T05:48:47.754Z,16.00
2023-05-22T05:53:49.890Z,16.30
2023-05-22T05:58:52.015Z,16.50
2023-05-22T06:03:56.047Z,16.60
2023-05-22T06:08:58.612Z,16.60
2023-05-22T06:14:00.737Z,16.70
2023-05-22T06:19:06.006Z,16.90
2023-05-22T06:24:08.277Z,17.10
2023-05-22T06:29:10.383Z,17.10
2023-05-22T06:34:13.803Z,17.60
2023-05-22T06:39:16.427Z,17.90
2023-05-22T06:44:18.979Z,18.00
2023-05-22T06:49:22.703Z,18.30
2023-05-22T06:54:28.686Z,19.00
2023-05-22T06:59:31.745Z,19.80
2023-05-22T07:04:35.031Z,20.20
2023-05-22T07:09:37.221Z,20.50
2023-05-22T07:14:39.342Z,21.00
2023-05-22T07:19:42.803Z,21.10
2023-05-22T07:24:44.794Z,21.60
2023-05-22T07:29:47.113Z,22.20
2023-05-22T07:34:50.604Z,22.30
2023-05-22T07:39:52.712Z,22.70
2023-05-22T07:44:55.176Z,23.10
2023-05-22T07:49:58.399Z,23.40
2023-05-22T07:55:00.264Z,23.80
2023-05-22T08:00:06.924Z,24.00
2023-05-22T08:05:11.519Z,24.30
2023-05-22T08:10:18.392Z,24.10
2023-05-22T08:15:20.547Z,24.70
2023-05-22T08:20:24.052Z,24.50
2023-05-22T08:25:25.820Z,25.00
2023-05-22T08:30:27.889Z,25.60
2023-05-22T08:35:31.312Z,26.10
2023-05-22T08:40:38.115Z,26.20
2023-05-22T08:45:42.613Z,26.40
2023-05-22T08:50:48.184Z,26.20
2023-05-22T08:55:50.539Z,26.00
2023-05-22T09:00:54.453Z,26.30
2023-05-22T09:05:57.924Z,26.70
2023-05-22T09:11:00.009Z,27.10
2023-05-22T09:16:09.668Z,27.70
2023-05-22T09:21:28.872Z,27.40
2023-05-22T09:26:33.098Z,28.00
2023-05-22T09:31:42.145Z,27.80
2023-05-22T09:36:46.004Z,27.20
2023-05-22T09:41:48.525Z,27.90
2023-05-22T09:46:50.675Z,28.60
2023-05-22T09:51:56.396Z,28.20
2023-05-22T09:57:00.841Z,27.60
2023-05-22T10:02:03.640Z,27.90
2023-05-22T10:07:08.278Z,28.70
2023-05-22T10:12:16.389Z,29.20
2023-05-22T10:17:20.084Z,29.30
2023-05-22T10:22:26.076Z,29.40
2023-05-22T10:27:28.251Z,30.20
2023-05-22T10:33:17.152Z,30.50
2023-05-22T10:39:37.624Z,30.80
2023-05-22T10:44:52.558Z,30.50
2023-05-22T10:50:05.940Z,30.70
2023-05-22T10:55:09.399Z,31.00
2023-05-22T11:00:18.829Z,30.60
2023-05-22T11:05:37.306Z,30.90
2023-05-22T11:10:56.214Z,31.10
2023-05-22T11:15:59.603Z,31.30
2023-05-22T11:21:01.985Z,30.80
2023-05-22T11:26:20.060Z,31.50
2023-05-22T11:31:27.105Z,32.00
2023-05-22T11:36:29.833Z,32.10
2023-05-22T11:41:34.154Z,32.50
2023-05-22T11:46:40.119Z,32.10
2023-05-22T11:51:42.327Z,32.30
2023-05-22T11:56:44.513Z,33.20
2023-05-22T12:01:51.387Z,33.70
2023-05-22T12:06:54.039Z,33.00
2023-05-22T12:11:58.213Z,33.00
2023-05-22T12:17:04.484Z,32.80
2023-05-22T12:22:07.096Z,33.50
2023-05-22T12:27:11.172Z,33.60
2023-05-22T12:32:15.023Z,34.10
2023-05-22T12:37:25.344Z,33.90
2023-05-22T12:42:28.292Z,34.70
2023-05-22T12:47:31.905Z,35.00
2023-05-22T12:52:35.019Z,35.70
2023-05-22T12:57:37.156Z,36.10
2023-05-22T13:02:40.754Z,35.70
2023-05-22T13:07:43.108Z,34.90
2023-05-22T13:12:47.302Z,35.60
2023-05-22T13:17:50.750Z,35.90
2023-05-22T13:22:53.056Z,36.50
2023-05-22T13:27:55.076Z,37.40
2023-05-22T13:32:59.142Z,37.90
2023-05-22T13:38:01.503Z,37.60
2023-05-22T13:43:03.830Z,37.50
2023-05-22T13:48:07.193Z,36.30
2023-05-22T13:53:09.533Z,37.50
2023-05-22T13:58:11.643Z,37.40
2023-05-22T14:03:17.817Z,37.60
2023-05-22T14:08:20.269Z,37.90
2023-05-22T14:13:22.583Z,38.30
2023-05-22T14:18:26.266Z,37.50
2023-05-22T14:23:28.332Z,37.80
2023-05-22T14:28:31.932Z,37.00
2023-05-22T14:33:35.957Z,37.20
2023-05-22T14:38:38.330Z,37.90
2023-05-22T14:43:40.644Z,37.10
2023-05-22T14:48:44.171Z,36.50
2023-05-22T14:53:46.524Z,35.90
2023-05-22T14:58:48.518Z,35.40
2023-05-22T15:03:52.906Z,34.80
2023-05-22T15:08:55.143Z,34.10
2023-05-22T15:13:56.968Z,33.70
2023-05-22T15:19:00.360Z,33.20
2023-05-22T15:24:03.368Z,33.20
2023-05-22T15:29:05.549Z,32.50
2023-05-22T15:34:09.235Z,33.00
2023-05-22T15:39:11.139Z,32.50
2023-05-22T15:44:13.342Z,32.00
2023-05-22T15:49:17.096Z,32.30
2023-05-22T15:54:19.087Z,31.80
2023-05-22T15:59:21.365Z,31.10
2023-05-22T16:04:24.827Z,30.20
2023-05-22T16:09:26.925Z,28.90
2023-05-22T16:14:29.483Z,29.20
2023-05-22T16:19:33.715Z,29.80
2023-05-22T16:24:35.942Z,30.00
2023-05-22T16:29:37.853Z,30.30
2023-05-22T16:34:41.646Z,30.00
2023-05-22T16:39:47.329Z,29.10
2023-05-22T16:44:49.473Z,28.10
2023-05-22T16:49:53.297Z,28.50
2023-05-22T16:54:55.826Z,28.50
2023-05-22T16:59:58.383Z,28.10
2023-05-22T17:05:04.310Z,27.60
2023-05-22T17:10:09.191Z,27.50
2023-05-22T17:15:12.666Z,27.30
2023-05-22T17:20:16.912Z,27.30
2023-05-22T17:25:19.110Z,27.20
2023-05-22T17:30:21.782Z,27.20
2023-05-22T17:35:26.108Z,27.10
2023-05-22T17:40:46.027Z,27.10
2023-05-22T17:45:51.568Z,26.80
2023-05-22T17:50:56.026Z,26.50
2023-05-22T17:55:58.694Z,26.30
2023-05-22T18:01:01.843Z,26.10
2023-05-22T18:06:07.077Z,26.00
2023-05-22T18:11:10.307Z,25.50
2023-05-22T18:16:13.588Z,25.20
2023-05-22T18:21:18.058Z,24.80
2023-05-22T18:26:20.885Z,24.30
2023-05-22T18:31:24.364Z,24.00
2023-05-22T18:36:29.049Z,23.80
2023-05-22T18:41:32.030Z,23.40
2023-05-22T18:46:34.762Z,23.20
2023-05-22T18:51:39.176Z,22.90
2023-05-22T18:56:42.410Z,22.60
2023-05-22T19:01:46.777Z,22.40
2023-05-22T19:06:54.579Z,22.20
2023-05-22T19:11:58.014Z,21.90
2023-05-22T19:17:01.256Z,21.80
2023-05-22T19:22:05.923Z,21.60
2023-05-22T19:27:09.187Z,21.50
2023-05-22T19:32:11.816Z,21.50
2023-05-22T19:37:16.209Z,21.40
2023-05-22T19:42:18.992Z,21.30
2023-05-22T19:47:21.478Z,21.20
2023-05-22T19:52:27.219Z,21.40
2023-05-22T19:57:30.034Z,21.50
2023-05-22T20:02:32.681Z,21.40
2023-05-22T20:07:36.857Z,21.40
2023-05-22T20:12:39.321Z,21.40
2023-05-22T20:17:42.362Z,21.30
2023-05-22T20:22:46.900Z,21.10
2023-05-22T20:27:50.520Z,20.80
2023-05-22T20:32:53.966Z,20.80
2023-05-22T20:37:58.775Z,20.70
2023-05-22T20:43:02.954Z,20.40
2023-05-22T20:48:06.452Z,20.10
2023-05-22T20:53:10.201Z,19.90
2023-05-22T20:58:13.054Z,19.80
2023-05-22T21:03:15.174Z,19.50
2023-05-22T21:08:18.926Z,19.60
2023-05-22T21:13:20.828Z,19.40
2023-05-22T21:18:22.786Z,19.30
2023-05-22T21:23:26.678Z,19.10
2023-05-22T21:28:29.019Z,19.00
2023-05-22T21:33:31.386Z,18.90
2023-05-22T21:38:34.936Z,18.90
2023-05-22T21:43:37.215Z,18.80
2023-05-22T21:48:39.549Z,18.70
2023-05-22T21:53:42.912Z,18.80
2023-05-22T21:58:45.206Z,18.50
2023-05-22T22:03:47.883Z,18.60
2023-05-22T22:08:53.549Z,18.70
2023-05-22T22:13:55.486Z,18.70
2023-05-22T22:18:58.435Z,18.50
2023-05-22T22:24:01.957Z,18.30
2023-05-22T22:29:04.056Z,18.10
2023-05-22T22:34:06.762Z,18.10
2023-05-22T22:39:10.397Z,18.00
2023-05-22T22:44:12.356Z,18.10
2023-05-22T22:49:16.011Z,18.10
2023-05-22T22:54:19.525Z,18.20
2023-05-22T22:59:22.069Z,18.20
2023-05-22T23:04:24.082Z,18.20
2023-05-22T23:09:27.928Z,17.90
2023-05-22T23:14:30.568Z,17.90
2023-05-22T23:19:32.605Z,17.80
2023-05-22T23:24:36.288Z,17.70
2023-05-22T23:29:38.288Z,17.50
2023-05-22T23:34:39.936Z,17.50
2023-05-22T23:39:43.183Z,17.60
2023-05-22T23:44:45.328Z,17.80
2023-05-22T23:49:47.538Z,17.80
2023-05-22T23:54:50.869Z,17.50
2023-05-22T23:59:52.810Z,17.40
